sensor_id;sensor_type;location;lat;lon;timestamp;pressure;altitude;pressure_sealevel;temperature;humidity
12349;BME280;5974;42.710;27.258;2023-05-11T00:01:10;100759.81;;;4.56;100.00
12349;BME280;5974;42.710;27.258;2023-05-11T00:03:37;100758.13;;;4.52;100.00
12349;BME280;5974;42.710;27.258;2023-05-11T00:06:04;100752.91;;;4.57;100.00
12349;BME280;5974;42.710;27.258;2023-05-11T00:08:31;100764.97;;;4.59;100.00
12349;BME280;5974;42.710;27.258;2023-05-11T00:10:58;100759.78;;;4.59;100.00
12349;BME280;5974;42.710;27.258;2023-05-11T00:13:27;100758.09;;;4.57;100.00
12349;BME280;5974;42.710;27.258;2023-05-11T00:15:54;100759.81;;;4.58;100.00
12349;BME280;5974;42.710;27.258;2023-05-11T00:18:21;100749.56;;;4.41;100.00
12349;BME280;5974;42.710;27.258;2023-05-11T00:20:48;100759.88;;;4.47;100.00
12349;BME280;5974;42.710;27.258;2023-05-11T00:23:15;100764.25;;;4.39;100.00
12349;BME280;5974;42.710;27.258;2023-05-11T00:25:42;100763.44;;;4.23;100.00
12349;BME280;5974;42.710;27.258;2023-05-11T00:28:09;100763.41;;;4.29;100.00
12349;BME280;5974;42.710;27.258;2023-05-11T00:30:38;100762.50;;;4.38;100.00
12349;BME280;5974;42.710;27.258;2023-05-11T00:33:05;100766.81;;;4.37;100.00
12349;BME280;5974;42.710;27.258;2023-05-11T00:35:32;100774.59;;;4.36;100.00
12349;BME280;5974;42.710;27.258;2023-05-11T00:37:59;100767.66;;;4.41;100.00
12349;BME280;5974;42.710;27.258;2023-05-11T00:40:26;100774.56;;;4.42;100.00
12349;BME280;5974;42.710;27.258;2023-05-11T00:42:53;100782.31;;;4.47;100.00
12349;BME280;5974;42.710;27.258;2023-05-11T00:45:20;100775.38;;;4.50;100.00
12349;BME280;5974;42.710;27.258;2023-05-11T00:47:48;100780.59;;;4.47;100.00
12349;BME280;5974;42.710;27.258;2023-05-11T00:50:15;100778.84;;;4.48;100.00
12349;BME280;5974;42.710;27.258;2023-05-11T00:52:43;100769.41;;;4.39;100.00
12349;BME280;5974;42.710;27.258;2023-05-11T00:55:12;100766.81;;;4.39;100.00
12349;BME280;5974;42.710;27.258;2023-05-11T00:57:39;100752.19;;;4.29;100.00
12349;BME280;5974;42.710;27.258;2023-05-11T01:00:07;100771.16;;;4.32;100.00
12349;BME280;5974;42.710;27.258;2023-05-11T01:02:34;100770.31;;;4.32;100.00
12349;BME280;5974;42.710;27.258;2023-05-11T01:05:03;100770.34;;;4.26;100.00
12349;BME280;5974;42.710;27.258;2023-05-11T01:07:33;100770.31;;;4.33;100.00
12349;BME280;5974;42.710;27.258;2023-05-11T01:10:07;100768.56;;;4.31;100.00
12349;BME280;5974;42.710;27.258;2023-05-11T01:12:44;100783.28;;;4.30;100.00
12349;BME280;5974;42.710;27.258;2023-05-11T01:15:17;100771.19;;;4.26;100.00
12349;BME280;5974;42.710;27.258;2023-05-11T01:17:51;100763.47;;;4.20;100.00
12349;BME280;5974;42.710;27.258;2023-05-11T01:20:25;100769.47;;;4.27;100.00
12349;BME280;5974;42.710;27.258;2023-05-11T01:26:00;100778.94;;;4.28;100.00
12349;BME280;5974;42.710;27.258;2023-05-11T01:28:51;100772.91;;;4.32;100.00
12349;BME280;5974;42.710;27.258;2023-05-11T01:31:26;100772.97;;;4.21;100.00
12349;BME280;5974;42.710;27.258;2023-05-11T01:33:58;100737.66;;;4.05;100.00
12349;BME280;5974;42.710;27.258;2023-05-11T01:36:31;100773.81;;;4.20;100.00
12349;BME280;5974;42.710;27.258;2023-05-11T01:39:02;100770.38;;;4.14;100.00
12349;BME280;5974;42.710;27.258;2023-05-11T01:41:32;100777.25;;;4.27;100.00
12349;BME280;5974;42.710;27.258;2023-05-11T01:44:04;100763.44;;;4.22;100.00
12349;BME280;5974;42.710;27.258;2023-05-11T01:46:33;100771.19;;;4.26;100.00
12349;BME280;5974;42.710;27.258;2023-05-11T01:49:04;100772.94;;;4.24;100.00
12349;BME280;5974;42.710;27.258;2023-05-11T01:51:34;100760.91;;;4.13;100.00
12349;BME280;5974;42.710;27.258;2023-05-11T01:54:05;100776.31;;;4.42;100.00
12349;BME280;5974;42.710;27.258;2023-05-11T01:56:34;100781.44;;;4.46;100.00
12349;BME280;5974;42.710;27.258;2023-05-11T01:59:02;100777.09;;;4.50;100.00
12349;BME280;5974;42.710;27.258;2023-05-11T02:01:29;100760.75;;;4.45;100.00
12349;BME280;5974;42.710;27.258;2023-05-11T02:04:01;100786.59;;;4.51;100.00
12349;BME280;5974;42.710;27.258;2023-05-11T02:06:30;100772.81;;;4.47;100.00
12349;BME280;5974;42.710;27.258;2023-05-11T02:08:59;100771.06;;;4.54;100.00
12349;BME280;5974;42.710;27.258;2023-05-11T02:11:28;100770.19;;;4.55;100.00
12349;BME280;5974;42.710;27.258;2023-05-11T02:13:57;100769.28;;;4.59;100.00
12349;BME280;5974;42.710;27.258;2023-05-11T02:16:25;100771.91;;;4.56;100.00
12349;BME280;5974;42.710;27.258;2023-05-11T02:18:54;100742.59;;;4.46;100.00
12349;BME280;5974;42.710;27.258;2023-05-11T02:21:26;100768.44;;;4.61;100.00
12349;BME280;5974;42.710;27.258;2023-05-11T02:23:54;100765.00;;;4.58;100.00
12349;BME280;5974;42.710;27.258;2023-05-11T02:26:22;100771.78;;;4.74;100.00
12349;BME280;5974;42.710;27.258;2023-05-11T02:28:49;100770.00;;;4.83;100.00
12349;BME280;5974;42.710;27.258;2023-05-11T02:31:18;100772.50;;;4.97;100.00
12349;BME280;5974;42.710;27.258;2023-05-11T02:33:47;100762.97;;;5.01;100.00
12349;BME280;5974;42.710;27.258;2023-05-11T02:36:17;100775.88;;;5.07;100.00
12349;BME280;5974;42.710;27.258;2023-05-11T02:38:47;100771.63;;;4.97;100.00
12349;BME280;5974;42.710;27.258;2023-05-11T02:41:17;100775.06;;;5.03;100.00
12349;BME280;5974;42.710;27.258;2023-05-11T02:43:50;100779.38;;;5.00;100.00
12349;BME280;5974;42.710;27.258;2023-05-11T02:46:19;100770.72;;;5.04;100.00
12349;BME280;5974;42.710;27.258;2023-05-11T02:48:50;100771.50;;;5.15;100.00
12349;BME280;5974;42.710;27.258;2023-05-11T02:51:22;100776.56;;;5.31;100.00
12349;BME280;5974;42.710;27.258;2023-05-11T02:53:55;100774.75;;;5.36;100.00
12349;BME280;5974;42.710;27.258;2023-05-11T02:56:23;100776.38;;;5.48;100.00
12349;BME280;5974;42.710;27.258;2023-05-11T02:58:50;100775.50;;;5.47;100.00
12349;BME280;5974;42.710;27.258;2023-05-11T03:01:17;100775.47;;;5.57;100.00
12349;BME280;5974;42.710;27.258;2023-05-11T03:03:44;100784.84;;;5.68;100.00
12349;BME280;5974;42.710;27.258;2023-05-11T03:06:11;100772.66;;;5.78;100.00
12349;BME280;5974;42.710;27.258;2023-05-11T03:08:38;100774.09;;;6.03;100.00
12349;BME280;5974;42.710;27.258;2023-05-11T03:11:08;100772.38;;;6.05;100.00
12349;BME280;5974;42.710;27.258;2023-05-11T03:13:35;100783.50;;;6.15;100.00
12349;BME280;5974;42.710;27.258;2023-05-11T03:16:03;100784.19;;;6.29;100.00
12349;BME280;5974;42.710;27.258;2023-05-11T03:18:32;100782.28;;;6.41;100.00
12349;BME280;5974;42.710;27.258;2023-05-11T03:20:59;100735.72;;;6.28;100.00
12349;BME280;5974;42.710;27.258;2023-05-11T03:23:27;100783.66;;;6.68;100.00
12349;BME280;5974;42.710;27.258;2023-05-11T03:25:56;100782.47;;;6.92;100.00
12349;BME280;5974;42.710;27.258;2023-05-11T03:28:27;100782.19;;;7.08;100.00
12349;BME280;5974;42.710;27.258;2023-05-11T03:30:55;100775.09;;;7.18;100.00
12349;BME280;5974;42.710;27.258;2023-05-11T03:33:22;100779.88;;;7.42;100.00
12349;BME280;5974;42.710;27.258;2023-05-11T03:35:50;100791.59;;;7.66;100.00
12349;BME280;5974;42.710;27.258;2023-05-11T03:38:21;100773.72;;;7.94;100.00
12349;BME280;5974;42.710;27.258;2023-05-11T03:40:51;100776.78;;;8.15;100.00
12349;BME280;5974;42.710;27.258;2023-05-11T03:43:19;100778.44;;;8.19;100.00
12349;BME280;5974;42.710;27.258;2023-05-11T03:45:49;100774.03;;;8.22;100.00
12349;BME280;5974;42.710;27.258;2023-05-11T03:48:18;100773.69;;;8.41;100.00
12349;BME280;5974;42.710;27.258;2023-05-11T03:50:46;100774.47;;;8.45;100.00
12349;BME280;5974;42.710;27.258;2023-05-11T03:53:13;100771.56;;;8.58;100.00
12349;BME280;5974;42.710;27.258;2023-05-11T03:55:41;100774.53;;;8.82;100.00
12349;BME280;5974;42.710;27.258;2023-05-11T03:58:08;100766.53;;;9.24;100.00
12349;BME280;5974;42.710;27.258;2023-05-11T04:00:37;100752.84;;;9.50;100.00
12349;BME280;5974;42.710;27.258;2023-05-11T04:03:06;100765.63;;;9.92;100.00
12349;BME280;5974;42.710;27.258;2023-05-11T04:05:33;100764.00;;;10.20;100.00
12349;BME280;5974;42.710;27.258;2023-05-11T04:08:01;100762.59;;;10.67;100.00
12349;BME280;5974;42.710;27.258;2023-05-11T04:10:28;100710.34;;;11.44;100.00
12349;BME280;5974;42.710;27.258;2023-05-11T04:12:55;100748.63;;;13.52;100.00
12349;BME280;5974;42.710;27.258;2023-05-11T04:15:22;100723.16;;;15.40;100.00
12349;BME280;5974;42.710;27.258;2023-05-11T04:17:49;100711.00;;;16.84;100.00
12349;BME280;5974;42.710;27.258;2023-05-11T04:20:17;100709.03;;;16.56;100.00
12349;BME280;5974;42.710;27.258;2023-05-11T04:22:44;100723.72;;;15.63;100.00
12349;BME280;5974;42.710;27.258;2023-05-11T04:25:11;100718.81;;;14.69;100.00
12349;BME280;5974;42.710;27.258;2023-05-11T04:27:38;100722.03;;;14.92;100.00
12349;BME280;5974;42.710;27.258;2023-05-11T04:30:07;100710.75;;;17.92;100.00
12349;BME280;5974;42.710;27.258;2023-05-11T04:32:34;100714.94;;;20.94;86.84
12349;BME280;5974;42.710;27.258;2023-05-11T04:35:01;100714.41;;;21.71;74.57
12349;BME280;5974;42.710;27.258;2023-05-11T04:37:29;100711.09;;;22.90;66.37
12349;BME280;5974;42.710;27.258;2023-05-11T04:39:56;100719.44;;;23.81;64.11
12349;BME280;5974;42.710;27.258;2023-05-11T04:42:23;100722.66;;;22.68;64.37
12349;BME280;5974;42.710;27.258;2023-05-11T04:44:52;100722.00;;;22.98;61.66
12349;BME280;5974;42.710;27.258;2023-05-11T04:47:19;100727.00;;;24.06;60.49
12349;BME280;5974;42.710;27.258;2023-05-11T04:49:45;100732.53;;;25.80;55.51
12349;BME280;5974;42.710;27.258;2023-05-11T04:52:12;100727.91;;;26.83;54.15
12349;BME280;5974;42.710;27.258;2023-05-11T04:54:41;100741.44;;;25.71;50.37
12349;BME280;5974;42.710;27.258;2023-05-11T04:57:07;100730.22;;;24.79;51.76
12349;BME280;5974;42.710;27.258;2023-05-11T04:59:34;100732.63;;;23.09;55.33
12349;BME280;5974;42.710;27.258;2023-05-11T05:02:01;100736.59;;;24.78;54.23
12349;BME280;5974;42.710;27.258;2023-05-11T05:04:28;100744.88;;;26.10;49.89
12349;BME280;5974;42.710;27.258;2023-05-11T05:06:55;100724.22;;;25.73;49.86
12349;BME280;5974;42.710;27.258;2023-05-11T05:09:22;100668.06;;;25.06;49.99
12349;BME280;5974;42.710;27.258;2023-05-11T05:11:50;100730.03;;;28.11;47.78
12349;BME280;5974;42.710;27.258;2023-05-11T05:14:17;100736.69;;;27.56;47.23
12349;BME280;5974;42.710;27.258;2023-05-11T05:16:44;100749.28;;;26.01;47.32
12349;BME280;5974;42.710;27.258;2023-05-11T05:19:11;100745.41;;;25.28;49.46
12349;BME280;5974;42.710;27.258;2023-05-11T05:21:38;100742.16;;;23.96;52.12
12349;BME280;5974;42.710;27.258;2023-05-11T05:24:05;100746.50;;;25.35;49.36
12349;BME280;5974;42.710;27.258;2023-05-11T05:26:35;100742.44;;;25.70;48.27
12349;BME280;5974;42.710;27.258;2023-05-11T05:29:03;100744.41;;;25.68;48.64
12349;BME280;5974;42.710;27.258;2023-05-11T05:31:31;100748.63;;;24.54;49.15
12349;BME280;5974;42.710;27.258;2023-05-11T05:33:58;100742.66;;;22.85;51.73
12349;BME280;5974;42.710;27.258;2023-05-11T05:36:24;100746.06;;;23.07;51.74
12349;BME280;5974;42.710;27.258;2023-05-11T05:38:51;100741.78;;;23.59;51.75
12349;BME280;5974;42.710;27.258;2023-05-11T05:41:18;100751.50;;;22.63;53.59
12349;BME280;5974;42.710;27.258;2023-05-11T05:43:46;100728.56;;;21.37;54.72
12349;BME280;5974;42.710;27.258;2023-05-11T05:46:14;100755.91;;;19.27;58.73
12349;BME280;5974;42.710;27.258;2023-05-11T05:48:41;100740.31;;;17.99;63.52
12349;BME280;5974;42.710;27.258;2023-05-11T05:51:08;100761.84;;;16.88;68.00
12349;BME280;5974;42.710;27.258;2023-05-11T05:53:35;100761.66;;;16.11;74.14
12349;BME280;5974;42.710;27.258;2023-05-11T05:56:02;100757.88;;;15.31;79.85
12349;BME280;5974;42.710;27.258;2023-05-11T05:58:29;100763.09;;;15.66;86.39
12349;BME280;5974;42.710;27.258;2023-05-11T06:00:56;100759.75;;;15.46;87.23
12349;BME280;5974;42.710;27.258;2023-05-11T06:03:24;100746.97;;;15.72;86.64
12349;BME280;5974;42.710;27.258;2023-05-11T06:05:51;100756.22;;;15.11;89.60
12349;BME280;5974;42.710;27.258;2023-05-11T06:08:18;100757.94;;;15.12;92.15
12349;BME280;5974;42.710;27.258;2023-05-11T06:10:45;100762.16;;;15.85;88.86
12349;BME280;5974;42.710;27.258;2023-05-11T06:13:11;100767.00;;;16.42;84.66
12349;BME280;5974;42.710;27.258;2023-05-11T06:15:38;100772.03;;;17.25;78.69
12349;BME280;5974;42.710;27.258;2023-05-11T06:18:05;100770.06;;;17.74;77.54
12349;BME280;5974;42.710;27.258;2023-05-11T06:20:33;100776.25;;;18.59;72.92
12349;BME280;5974;42.710;27.258;2023-05-11T06:23:00;100764.72;;;19.67;67.31
12349;BME280;5974;42.710;27.258;2023-05-11T06:25:27;100773.03;;;18.95;69.18
12349;BME280;5974;42.710;27.258;2023-05-11T06:27:54;100771.00;;;20.54;64.67
12349;BME280;5974;42.710;27.258;2023-05-11T06:30:21;100767.03;;;20.96;62.11
12349;BME280;5974;42.710;27.258;2023-05-11T06:32:48;100772.09;;;20.27;60.98
12349;BME280;5974;42.710;27.258;2023-05-11T06:35:15;100766.78;;;19.23;63.34
12349;BME280;5974;42.710;27.258;2023-05-11T06:37:43;100776.06;;;17.62;64.51
12349;BME280;5974;42.710;27.258;2023-05-11T06:40:10;100772.50;;;17.47;66.89
12349;BME280;5974;42.710;27.258;2023-05-11T06:42:37;100777.34;;;16.62;68.92
12349;BME280;5974;42.710;27.258;2023-05-11T06:45:05;100779.81;;;16.17;71.65
12349;BME280;5974;42.710;27.258;2023-05-11T06:47:32;100783.00;;;16.06;71.96
12349;BME280;5974;42.710;27.258;2023-05-11T06:49:59;100781.81;;;17.39;69.15
12349;BME280;5974;42.710;27.258;2023-05-11T06:52:26;100776.88;;;19.18;63.03
12349;BME280;5974;42.710;27.258;2023-05-11T06:54:54;100782.50;;;19.40;61.54
12349;BME280;5974;42.710;27.258;2023-05-11T06:57:21;100781.75;;;20.28;60.92
12349;BME280;5974;42.710;27.258;2023-05-11T06:59:48;100788.00;;;20.01;57.48
12349;BME280;5974;42.710;27.258;2023-05-11T07:02:16;100784.19;;;18.73;59.79
12349;BME280;5974;42.710;27.258;2023-05-11T07:04:43;100787.56;;;17.15;63.27
12349;BME280;5974;42.710;27.258;2023-05-11T07:07:10;100787.75;;;16.97;64.89
12349;BME280;5974;42.710;27.258;2023-05-11T07:09:37;100785.09;;;16.65;65.80
12349;BME280;5974;42.710;27.258;2023-05-11T07:12:06;100792.13;;;19.80;61.31
12349;BME280;5974;42.710;27.258;2023-05-11T07:14:33;100754.25;;;18.85;59.36
12349;BME280;5974;42.710;27.258;2023-05-11T07:17:00;100789.66;;;18.84;61.39
12349;BME280;5974;42.710;27.258;2023-05-11T07:19:26;100787.09;;;17.98;63.87
12349;BME280;5974;42.710;27.258;2023-05-11T07:21:54;100783.81;;;18.37;64.19
12349;BME280;5974;42.710;27.258;2023-05-11T07:24:20;100773.78;;;20.02;61.04
12349;BME280;5974;42.710;27.258;2023-05-11T07:26:47;100783.94;;;23.01;50.15
12349;BME280;5974;42.710;27.258;2023-05-11T07:29:17;100781.31;;;23.86;47.22
12349;BME280;5974;42.710;27.258;2023-05-11T07:31:44;100781.63;;;21.27;51.84
12349;BME280;5974;42.710;27.258;2023-05-11T07:34:12;100782.47;;;21.97;52.51
12349;BME280;5974;42.710;27.258;2023-05-11T07:36:39;100779.81;;;21.28;52.69
12349;BME280;5974;42.710;27.258;2023-05-11T07:39:06;100784.13;;;21.18;53.05
12349;BME280;5974;42.710;27.258;2023-05-11T07:41:33;100790.56;;;20.53;55.16
12349;BME280;5974;42.710;27.258;2023-05-11T07:43:59;100768.88;;;20.47;54.41
12349;BME280;5974;42.710;27.258;2023-05-11T07:46:28;100786.47;;;19.72;54.83
12349;BME280;5974;42.710;27.258;2023-05-11T07:48:55;100799.41;;;18.41;56.22
12349;BME280;5974;42.710;27.258;2023-05-11T07:51:22;100788.38;;;18.49;57.08
12349;BME280;5974;42.710;27.258;2023-05-11T07:53:49;100783.34;;;17.43;57.59
12349;BME280;5974;42.710;27.258;2023-05-11T07:56:16;100787.41;;;16.56;59.40
12349;BME280;5974;42.710;27.258;2023-05-11T07:58:42;100787.75;;;16.65;60.38
12349;BME280;5974;42.710;27.258;2023-05-11T08:01:10;100784.19;;;17.13;59.67
12349;BME280;5974;42.710;27.258;2023-05-11T08:03:38;100786.38;;;16.90;58.93
12349;BME280;5974;42.710;27.258;2023-05-11T08:06:06;100777.50;;;17.22;59.33
12349;BME280;5974;42.710;27.258;2023-05-11T08:08:33;100787.59;;;17.61;59.56
12349;BME280;5974;42.710;27.258;2023-05-11T08:10:59;100769.78;;;17.03;60.89
12349;BME280;5974;42.710;27.258;2023-05-11T08:13:28;100785.03;;;16.83;62.68
12349;BME280;5974;42.710;27.258;2023-05-11T08:15:54;100774.56;;;17.42;61.78
12349;BME280;5974;42.710;27.258;2023-05-11T08:18:21;100782.31;;;17.75;60.85
12349;BME280;5974;42.710;27.258;2023-05-11T08:20:50;100779.31;;;16.90;61.39
12349;BME280;5974;42.710;27.258;2023-05-11T08:23:17;100777.25;;;18.00;60.61
12349;BME280;5974;42.710;27.258;2023-05-11T08:25:51;100771.81;;;17.59;59.46
12349;BME280;5974;42.710;27.258;2023-05-11T08:28:18;100743.38;;;17.63;58.43
12349;BME280;5974;42.710;27.258;2023-05-11T08:30:46;100776.03;;;18.34;59.44
12349;BME280;5974;42.710;27.258;2023-05-11T08:33:13;100780.28;;;18.36;56.17
12349;BME280;5974;42.710;27.258;2023-05-11T08:35:40;100775.84;;;18.79;57.48
12349;BME280;5974;42.710;27.258;2023-05-11T08:38:08;100779.66;;;18.61;57.19
12349;BME280;5974;42.710;27.258;2023-05-11T08:40:35;100773.97;;;19.08;56.27
12349;BME280;5974;42.710;27.258;2023-05-11T08:43:03;100773.41;;;18.48;57.29
12349;BME280;5974;42.710;27.258;2023-05-11T08:45:32;100781.56;;;18.59;58.43
12349;BME280;5974;42.710;27.258;2023-05-11T08:48:01;100780.03;;;18.27;56.22
12349;BME280;5974;42.710;27.258;2023-05-11T08:50:29;100778.03;;;18.45;56.58
12349;BME280;5974;42.710;27.258;2023-05-11T08:52:56;100774.63;;;18.28;59.27
12349;BME280;5974;42.710;27.258;2023-05-11T08:55:25;100770.84;;;17.90;60.37
12349;BME280;5974;42.710;27.258;2023-05-11T08:57:52;100776.53;;;18.69;58.75
12349;BME280;5974;42.710;27.258;2023-05-11T09:00:22;100770.94;;;18.73;59.96
12349;BME280;5974;42.710;27.258;2023-05-11T09:02:49;100763.75;;;18.61;58.40
12349;BME280;5974;42.710;27.258;2023-05-11T09:05:17;100767.41;;;18.87;58.84
12349;BME280;5974;42.710;27.258;2023-05-11T09:07:46;100773.78;;;18.28;59.46
12349;BME280;5974;42.710;27.258;2023-05-11T09:10:17;100767.56;;;18.57;58.79
12349;BME280;5974;42.710;27.258;2023-05-11T09:12:45;100761.22;;;19.01;58.76
12349;BME280;5974;42.710;27.258;2023-05-11T09:15:12;100761.38;;;17.86;58.02
12349;BME280;5974;42.710;27.258;2023-05-11T09:17:39;100766.13;;;18.09;58.36
12349;BME280;5974;42.710;27.258;2023-05-11T09:20:06;100775.88;;;18.23;56.56
12349;BME280;5974;42.710;27.258;2023-05-11T09:22:41;100768.38;;;18.15;57.12
12349;BME280;5974;42.710;27.258;2023-05-11T09:25:10;100756.91;;;17.72;58.97
12349;BME280;5974;42.710;27.258;2023-05-11T09:27:40;100769.81;;;17.17;59.24
12349;BME280;5974;42.710;27.258;2023-05-11T09:30:14;100756.31;;;18.11;58.12
12349;BME280;5974;42.710;27.258;2023-05-11T09:32:51;100745.59;;;18.69;57.56
12349;BME280;5974;42.710;27.258;2023-05-11T09:35:19;100748.84;;;19.14;56.71
12349;BME280;5974;42.710;27.258;2023-05-11T09:37:59;100748.16;;;18.42;58.72
12349;BME280;5974;42.710;27.258;2023-05-11T09:40:27;100762.88;;;17.76;62.00
12349;BME280;5974;42.710;27.258;2023-05-11T09:42:54;100757.66;;;16.99;63.32
12349;BME280;5974;42.710;27.258;2023-05-11T09:45:36;100756.81;;;17.44;63.78
12349;BME280;5974;42.710;27.258;2023-05-11T09:48:05;100753.69;;;17.67;62.47
12349;BME280;5974;42.710;27.258;2023-05-11T09:50:32;100750.28;;;16.74;62.55
12349;BME280;5974;42.710;27.258;2023-05-11T09:52:59;100760.25;;;16.37;66.57
12349;BME280;5974;42.710;27.258;2023-05-11T09:55:26;100756.88;;;16.50;67.53
12349;BME280;5974;42.710;27.258;2023-05-11T09:57:54;100745.97;;;16.41;68.18
12349;BME280;5974;42.710;27.258;2023-05-11T10:00:23;100750.06;;;17.39;66.51
12349;BME280;5974;42.710;27.258;2023-05-11T10:03:03;100755.66;;;17.34;65.08
12349;BME280;5974;42.710;27.258;2023-05-11T10:05:31;100753.91;;;17.19;67.75
12349;BME280;5974;42.710;27.258;2023-05-11T10:08:00;100754.69;;;17.05;66.64
12349;BME280;5974;42.710;27.258;2023-05-11T10:10:29;100752.66;;;16.95;66.15
12349;BME280;5974;42.710;27.258;2023-05-11T10:12:57;100748.34;;;17.08;66.79
12349;BME280;5974;42.710;27.258;2023-05-11T10:15:26;100763.03;;;17.13;65.77
12349;BME280;5974;42.710;27.258;2023-05-11T10:17:54;100756.06;;;16.97;65.67
12349;BME280;5974;42.710;27.258;2023-05-11T10:20:24;100742.22;;;17.07;64.73
12349;BME280;5974;42.710;27.258;2023-05-11T10:22:51;100745.25;;;16.86;63.61
12349;BME280;5974;42.710;27.258;2023-05-11T10:25:20;100745.56;;;17.70;64.02
12349;BME280;5974;42.710;27.258;2023-05-11T10:27:48;100739.34;;;18.00;62.53
12349;BME280;5974;42.710;27.258;2023-05-11T10:30:16;100743.31;;;17.78;62.02
12349;BME280;5974;42.710;27.258;2023-05-11T10:32:43;100735.78;;;18.29;59.41
12349;BME280;5974;42.710;27.258;2023-05-11T10:35:11;100749.75;;;18.03;57.17
12349;BME280;5974;42.710;27.258;2023-05-11T10:37:41;100746.13;;;17.61;58.33
12349;BME280;5974;42.710;27.258;2023-05-11T10:40:09;100748.41;;;17.67;58.20
12349;BME280;5974;42.710;27.258;2023-05-11T10:43:07;100743.25;;;17.50;59.30
12349;BME280;5974;42.710;27.258;2023-05-11T10:45:47;100742.25;;;16.92;59.65
12349;BME280;5974;42.710;27.258;2023-05-11T10:51:28;100748.03;;;16.98;60.60
12349;BME280;5974;42.710;27.258;2023-05-11T10:54:24;100746.63;;;17.52;61.07
12349;BME280;5974;42.710;27.258;2023-05-11T10:57:05;100741.94;;;17.27;57.58
12349;BME280;5974;42.710;27.258;2023-05-11T10:59:56;100733.28;;;17.40;58.65
12349;BME280;5974;42.710;27.258;2023-05-11T11:02:34;100745.91;;;16.42;58.44
12349;BME280;5974;42.710;27.258;2023-05-11T11:05:01;100736.72;;;16.96;58.57
12349;BME280;5974;42.710;27.258;2023-05-11T11:07:30;100731.94;;;17.03;58.70
12349;BME280;5974;42.710;27.258;2023-05-11T11:09:59;100747.28;;;17.71;57.48
12349;BME280;5974;42.710;27.258;2023-05-11T11:12:29;100742.91;;;16.95;58.46
12349;BME280;5974;42.710;27.258;2023-05-11T11:15:00;100737.72;;;17.69;58.28
12349;BME280;5974;42.710;27.258;2023-05-11T11:17:29;100735.47;;;17.17;60.09
12349;BME280;5974;42.710;27.258;2023-05-11T11:19:56;100746.53;;;17.24;60.92
12349;BME280;5974;42.710;27.258;2023-05-11T11:22:44;100745.94;;;17.34;60.65
12349;BME280;5974;42.710;27.258;2023-05-11T11:25:51;100744.59;;;17.27;59.47
12349;BME280;5974;42.710;27.258;2023-05-11T11:28:19;100739.69;;;17.35;58.33
12349;BME280;5974;42.710;27.258;2023-05-11T11:30:46;100735.19;;;16.76;58.88
12349;BME280;5974;42.710;27.258;2023-05-11T11:33:30;100744.91;;;16.60;57.15
12349;BME280;5974;42.710;27.258;2023-05-11T11:35:59;100729.09;;;17.06;56.92
12349;BME280;5974;42.710;27.258;2023-05-11T11:38:26;100718.03;;;16.99;58.20
12349;BME280;5974;42.710;27.258;2023-05-11T11:40:55;100725.63;;;17.65;57.55
12349;BME280;5974;42.710;27.258;2023-05-11T11:43:23;100714.56;;;17.58;57.95
12349;BME280;5974;42.710;27.258;2023-05-11T11:45:51;100809.41;;;17.19;58.81
12349;BME280;5974;42.710;27.258;2023-05-11T11:48:37;100724.78;;;17.78;58.16
12349;BME280;5974;42.710;27.258;2023-05-11T11:51:07;100681.25;;;17.10;59.70
12349;BME280;5974;42.710;27.258;2023-05-11T11:54:05;100730.03;;;17.05;59.84
12349;BME280;5974;42.710;27.258;2023-05-11T11:56:40;100725.63;;;16.27;59.17
12349;BME280;5974;42.710;27.258;2023-05-11T11:59:09;100703.66;;;16.73;59.24
12349;BME280;5974;42.710;27.258;2023-05-11T12:01:38;100713.69;;;16.98;60.11
12349;BME280;5974;42.710;27.258;2023-05-11T12:07:09;100720.19;;;17.52;60.03
12349;BME280;5974;42.710;27.258;2023-05-11T12:09:39;100712.25;;;17.96;57.41
12349;BME280;5974;42.710;27.258;2023-05-11T12:12:09;100700.63;;;17.11;59.60
12349;BME280;5974;42.710;27.258;2023-05-11T12:14:38;100685.03;;;17.80;58.90
12349;BME280;5974;42.710;27.258;2023-05-11T12:17:07;100687.19;;;18.30;58.61
12349;BME280;5974;42.710;27.258;2023-05-11T12:19:38;100695.22;;;17.72;58.32
12349;BME280;5974;42.710;27.258;2023-05-11T12:22:06;100699.66;;;18.00;58.40
12349;BME280;5974;42.710;27.258;2023-05-11T12:24:35;100681.53;;;17.65;60.45
12349;BME280;5974;42.710;27.258;2023-05-11T12:27:03;100681.38;;;17.09;59.93
12349;BME280;5974;42.710;27.258;2023-05-11T12:29:31;100660.97;;;16.81;60.70
12349;BME280;5974;42.710;27.258;2023-05-11T12:31:58;100673.31;;;16.80;60.99
12349;BME280;5974;42.710;27.258;2023-05-11T12:34:25;100668.91;;;17.11;61.10
12349;BME280;5974;42.710;27.258;2023-05-11T12:36:53;100663.88;;;17.36;60.90
12349;BME280;5974;42.710;27.258;2023-05-11T12:39:22;100673.94;;;17.15;61.38
12349;BME280;5974;42.710;27.258;2023-05-11T12:41:50;100668.63;;;17.45;60.33
12349;BME280;5974;42.710;27.258;2023-05-11T12:44:19;100670.69;;;17.40;60.86
12349;BME280;5974;42.710;27.258;2023-05-11T12:46:48;100666.94;;;17.44;61.20
12349;BME280;5974;42.710;27.258;2023-05-11T12:49:16;100653.97;;;16.80;61.45
12349;BME280;5974;42.710;27.258;2023-05-11T12:51:48;100671.22;;;17.61;60.22
12349;BME280;5974;42.710;27.258;2023-05-11T12:54:29;100662.06;;;17.22;61.75
12349;BME280;5974;42.710;27.258;2023-05-11T12:56:56;100665.19;;;17.29;61.23
12349;BME280;5974;42.710;27.258;2023-05-11T12:59:31;100667.13;;;16.82;62.19
12349;BME280;5974;42.710;27.258;2023-05-11T13:02:07;100640.03;;;16.78;61.78
12349;BME280;5974;42.710;27.258;2023-05-11T13:04:35;100657.63;;;16.93;62.27
12349;BME280;5974;42.710;27.258;2023-05-11T13:07:03;100661.50;;;16.72;63.42
12349;BME280;5974;42.710;27.258;2023-05-11T13:09:30;100659.09;;;16.83;63.20